Авиационная погода в Кокшетау

СКИДКИ НА СМАРТФОНЫ!

Регион: 
Погода METAR: 
UACK 081100Z 18003MPS CAVOK M23/M26 Q1032 NOSIG RMK QFE750/1000
Время наблюдения
2022-12-08T11:00:00Z
Температура C
-23.0
Точка росы
-26.0
Направление ветра
180
Скорость ветра (узлы)
6
Метео видимость
6.21
Облачность
CAVOK
Нижняя граница облачности (футы)
Явления погоды
Условия полета
VFR
Аэропорт подробнее: 

Скидки на навигаторы!